createdAt,value
2023-02-11T00:02:06.953Z,96586.13
2023-02-11T00:04:50.027Z,96583.59
2023-02-11T00:07:35.736Z,96580.69
2023-02-11T00:10:18.861Z,96576.03
2023-02-11T00:13:02.099Z,96571.94
2023-02-11T00:15:45.227Z,96584.56
2023-02-11T00:18:29.254Z,96577.69
2023-02-11T00:21:14.775Z,96577.09
2023-02-11T00:24:02.260Z,96574.84
2023-02-11T00:26:46.069Z,96569.28
2023-02-11T00:29:29.182Z,96575.84
2023-02-11T00:32:12.531Z,96574.53
2023-02-11T00:34:55.691Z,96569.78
2023-02-11T00:37:38.749Z,96576.09
2023-02-11T00:40:23.276Z,96571.75
2023-02-11T00:43:06.373Z,96585.16
2023-02-11T00:45:49.861Z,96569.97
2023-02-11T00:48:33.630Z,96569.78
2023-02-11T00:51:16.851Z,96571.59
2023-02-11T00:53:59.822Z,96567.50
2023-02-11T00:56:44.319Z,96565.44
2023-02-11T00:59:27.382Z,96556.06
2023-02-11T01:02:10.414Z,96556.41
2023-02-11T01:04:53.513Z,96561.22
2023-02-11T01:07:36.664Z,96559.84
2023-02-11T01:10:19.946Z,96561.34
2023-02-11T01:13:06.601Z,96549.06
2023-02-11T01:15:50.179Z,96552.75
2023-02-11T01:18:33.584Z,96553.56
2023-02-11T01:21:16.634Z,96556.59
2023-02-11T01:23:59.654Z,96545.56
2023-02-11T01:26:42.741Z,96544.84
2023-02-11T01:29:27.282Z,96552.75
2023-02-11T01:32:10.368Z,96554.47
2023-02-11T01:34:53.471Z,96551.03
2023-02-11T01:37:36.521Z,96550.56
2023-02-11T01:40:19.840Z,96550.06
2023-02-11T01:43:02.815Z,96551.31
2023-02-11T01:46:00.599Z,96544.53
2023-02-11T01:48:45.533Z,96551.03
2023-02-11T01:51:34.049Z,96548.53
2023-02-11T01:54:43.730Z,96544.13
2023-02-11T01:57:29.697Z,96550.22
2023-02-11T02:00:15.515Z,96546.00
2023-02-11T02:03:04.133Z,96544.34
2023-02-11T02:05:52.695Z,96539.47
2023-02-11T02:08:40.299Z,96536.84
2023-02-11T02:11:23.935Z,96544.91
2023-02-11T02:14:07.100Z,96532.25
2023-02-11T02:16:50.425Z,96542.38
2023-02-11T02:20:08.912Z,96543.44
2023-02-11T02:23:36.448Z,96550.06
2023-02-11T02:26:58.027Z,96551.66
2023-02-11T02:30:04.450Z,96538.44
2023-02-11T02:33:22.274Z,96545.59
2023-02-11T02:36:15.306Z,96545.00
2023-02-11T02:39:02.802Z,96538.03
2023-02-11T02:41:47.953Z,96541.94
2023-02-11T02:44:32.181Z,96540.31
2023-02-11T02:47:15.245Z,96532.78
2023-02-11T02:49:59.822Z,96545.03
2023-02-11T02:52:53.748Z,96545.19
2023-02-11T02:55:48.463Z,96547.81
2023-02-11T02:59:07.866Z,96548.13
2023-02-11T03:02:04.073Z,96547.69
2023-02-11T03:04:54.432Z,96551.78
2023-02-11T03:07:46.014Z,96546.22
2023-02-11T03:10:34.356Z,96545.22
2023-02-11T03:13:20.984Z,96548.75
2023-02-11T03:16:09.545Z,96546.69
2023-02-11T03:18:58.391Z,96544.38
2023-02-11T03:21:43.722Z,96546.16
2023-02-11T03:24:32.254Z,96550.16
2023-02-11T03:27:22.126Z,96542.06
2023-02-11T03:30:11.588Z,96542.53
2023-02-11T03:32:59.304Z,96541.88
2023-02-11T03:35:49.108Z,96546.69
2023-02-11T03:38:36.175Z,96551.75
2023-02-11T03:41:24.575Z,96547.00
2023-02-11T03:44:08.723Z,96541.50
2023-02-11T03:46:53.524Z,96553.38
2023-02-11T03:49:39.708Z,96546.00
2023-02-11T03:52:26.049Z,96533.63
2023-02-11T03:55:13.574Z,96531.84
2023-02-11T03:57:58.438Z,96539.28
2023-02-11T04:00:43.500Z,96531.72
2023-02-11T04:03:26.614Z,96532.28
2023-02-11T04:06:10.148Z,96542.31
2023-02-11T04:08:53.322Z,96532.22
2023-02-11T04:11:36.396Z,96543.41
2023-02-11T04:14:20.800Z,96541.88
2023-02-11T04:17:04.009Z,96530.53
2023-02-11T04:19:47.083Z,96543.97
2023-02-11T04:22:30.703Z,96540.38
2023-02-11T04:25:13.818Z,96539.28
2023-02-11T04:27:57.115Z,96535.69
2023-02-11T04:30:41.730Z,96539.41
2023-02-11T04:33:25.024Z,96535.88
2023-02-11T04:36:09.038Z,96535.06
2023-02-11T04:38:52.081Z,96535.25
2023-02-11T04:41:35.511Z,96527.97
2023-02-11T04:44:18.621Z,96532.28
2023-02-11T04:47:03.307Z,96525.31
2023-02-11T04:49:47.548Z,96535.13
2023-02-11T04:52:30.618Z,96535.72
2023-02-11T04:55:13.864Z,96536.09
2023-02-11T04:57:56.926Z,96528.00
2023-02-11T05:00:40.011Z,96528.28
2023-02-11T05:03:24.467Z,96529.19
2023-02-11T05:06:08.374Z,96523.31
2023-02-11T05:08:51.635Z,96522.63
2023-02-11T05:11:34.733Z,96522.56
2023-02-11T05:14:17.843Z,96523.44
2023-02-11T05:17:00.969Z,96520.19
2023-02-11T05:19:45.546Z,96510.63
2023-02-11T05:22:28.702Z,96512.31
2023-02-11T05:25:11.913Z,96513.78
2023-02-11T05:27:55.031Z,96510.69
2023-02-11T05:30:38.193Z,96516.38
2023-02-11T05:33:21.372Z,96517.44
2023-02-11T05:36:08.900Z,96522.69
2023-02-11T05:38:52.085Z,96514.31
2023-02-11T05:41:35.120Z,96516.78
2023-02-11T05:44:18.096Z,96517.44
2023-02-11T05:47:01.584Z,96514.84
2023-02-11T05:49:44.612Z,96520.03
2023-02-11T05:52:29.098Z,96512.97
2023-02-11T05:55:12.213Z,96525.75
2023-02-11T05:57:55.206Z,96522.81
2023-02-11T06:00:38.587Z,96517.38
2023-02-11T06:03:21.722Z,96529.19
2023-02-11T06:06:05.147Z,96529.63
2023-02-11T06:08:49.629Z,96533.84
2023-02-11T06:11:32.617Z,96539.03
2023-02-11T06:14:15.698Z,96532.25
2023-02-11T06:16:58.791Z,96531.47
2023-02-11T06:19:41.935Z,96541.88
2023-02-11T06:22:25.044Z,96538.47
2023-02-11T06:25:11.136Z,96531.78
2023-02-11T06:27:54.237Z,96537.63
2023-02-11T06:30:37.972Z,96536.19
2023-02-11T06:33:21.132Z,96537.38
2023-02-11T06:36:05.116Z,96537.75
2023-02-11T06:38:48.812Z,96528.94
2023-02-11T06:41:33.789Z,96519.66
2023-02-11T06:44:16.873Z,96523.53
2023-02-11T06:47:00.073Z,96520.44
2023-02-11T06:49:43.099Z,96513.50
2023-02-11T06:52:26.160Z,96517.28
2023-02-11T06:55:09.910Z,96521.50
2023-02-11T06:57:54.616Z,96523.41
2023-02-11T07:00:38.366Z,96517.66
2023-02-11T07:03:21.751Z,96522.00
2023-02-11T07:06:05.906Z,96524.97
2023-02-11T07:08:49.638Z,96516.91
2023-02-11T07:11:33.698Z,96520.44
2023-02-11T07:14:18.664Z,96511.72
2023-02-11T07:17:01.709Z,96514.94
2023-02-11T07:19:44.849Z,96511.75
2023-02-11T07:22:27.977Z,96504.31
2023-02-11T07:25:11.104Z,96495.94
2023-02-11T07:27:54.166Z,96492.03
2023-02-11T07:30:38.754Z,96493.44
2023-02-11T07:33:21.962Z,96496.50
2023-02-11T07:36:06.735Z,96492.75
2023-02-11T07:38:50.558Z,96484.22
2023-02-11T07:41:37.710Z,96493.94
2023-02-11T07:44:21.269Z,96492.00
2023-02-11T07:47:06.346Z,96484.47
2023-02-11T07:49:49.372Z,96483.69
2023-02-11T07:52:32.747Z,96487.28
2023-02-11T07:55:15.963Z,96482.63
2023-02-11T07:57:59.339Z,96473.34
2023-02-11T08:00:42.474Z,96473.84
2023-02-11T08:03:27.235Z,96469.13
2023-02-11T08:06:12.890Z,96463.13
2023-02-11T08:08:56.545Z,96469.31
2023-02-11T08:11:39.848Z,96468.81
2023-02-11T08:14:23.084Z,96467.81
2023-02-11T08:17:06.738Z,96466.66
2023-02-11T08:19:51.781Z,96462.03
2023-02-11T08:22:35.826Z,96454.41
2023-02-11T08:25:19.150Z,96460.91
2023-02-11T08:28:02.268Z,96468.41
2023-02-11T08:30:45.430Z,96461.38
2023-02-11T08:33:29.063Z,96466.34
2023-02-11T08:36:15.760Z,96475.88
2023-02-11T08:39:17.513Z,96468.47
2023-02-11T08:42:02.132Z,96470.38
2023-02-11T08:44:45.270Z,96471.81
2023-02-11T08:47:28.397Z,96467.94
2023-02-11T08:50:11.629Z,96469.34
2023-02-11T08:52:56.217Z,96472.00
2023-02-11T08:55:39.348Z,96470.50
2023-02-11T08:58:23.681Z,96475.34
2023-02-11T09:01:11.330Z,96474.59
2023-02-11T09:03:55.398Z,96460.41
2023-02-11T09:06:38.477Z,96472.47
2023-02-11T09:09:22.989Z,96469.53
2023-02-11T09:12:06.698Z,96468.88
2023-02-11T09:14:50.133Z,96466.09
2023-02-11T09:17:33.227Z,96450.72
2023-02-11T09:20:16.257Z,96449.66
2023-02-11T09:23:00.622Z,96446.84
2023-02-11T09:25:45.149Z,96456.81
2023-02-11T09:28:28.253Z,96442.72
2023-02-11T09:31:13.169Z,96447.06
2023-02-11T09:33:58.422Z,96445.25
2023-02-11T09:36:42.026Z,96441.41
2023-02-11T09:39:26.758Z,96439.97
2023-02-11T09:42:40.607Z,96422.69
2023-02-11T09:45:26.347Z,96431.09
2023-02-11T09:48:16.023Z,96418.63
2023-02-11T09:51:01.631Z,96414.56
2023-02-11T09:53:45.054Z,96421.19
2023-02-11T09:56:29.833Z,96411.44
2023-02-11T09:59:17.619Z,96407.38
2023-02-11T10:02:05.726Z,96409.09
2023-02-11T10:05:23.089Z,96390.78
2023-02-11T10:08:15.890Z,96394.25
2023-02-11T10:11:05.607Z,96382.66
2023-02-11T10:13:56.268Z,96377.47
2023-02-11T10:16:54.151Z,96362.22
2023-02-11T10:19:50.639Z,96356.56
2023-02-11T10:22:39.139Z,96356.63
2023-02-11T10:25:26.214Z,96342.41
2023-02-11T10:28:15.707Z,96326.09
2023-02-11T10:31:01.182Z,96331.53
2023-02-11T10:33:49.094Z,96319.53
2023-02-11T10:36:35.753Z,96311.44
2023-02-11T10:39:20.444Z,96307.25
2023-02-11T10:42:08.924Z,96296.25
2023-02-11T10:45:00.870Z,96288.50
2023-02-11T10:47:44.534Z,96286.91
2023-02-11T10:50:32.647Z,96282.03
2023-02-11T10:53:21.208Z,96277.25
2023-02-11T10:56:05.647Z,96271.53
2023-02-11T10:58:59.477Z,96258.91
2023-02-11T11:01:47.841Z,96264.81
2023-02-11T11:04:45.661Z,96253.13
2023-02-11T11:07:32.133Z,96259.22
2023-02-11T11:10:30.510Z,96257.94
2023-02-11T11:13:32.336Z,96257.56
2023-02-11T11:16:23.973Z,96259.06
2023-02-11T11:19:21.801Z,96254.06
2023-02-11T11:22:06.264Z,96240.59
2023-02-11T11:24:56.071Z,96240.97
2023-02-11T11:27:39.726Z,96246.16
2023-02-11T11:30:26.502Z,96242.25
2023-02-11T11:33:21.079Z,96239.69
2023-02-11T11:36:08.832Z,96231.63
2023-02-11T11:38:56.087Z,96240.91
2023-02-11T11:41:52.661Z,96236.09
2023-02-11T11:44:37.495Z,96220.09
2023-02-11T11:47:41.096Z,96217.88
2023-02-11T11:50:29.730Z,96225.78
2023-02-11T11:53:17.632Z,96219.56
2023-02-11T11:56:04.895Z,96214.22
2023-02-11T11:58:50.407Z,96206.25
2023-02-11T12:01:45.999Z,96205.41
2023-02-11T12:04:51.864Z,96198.28
2023-02-11T12:07:49.910Z,96180.63
2023-02-11T12:10:49.843Z,96180.84
2023-02-11T12:13:50.165Z,96184.88
2023-02-11T12:16:45.932Z,96179.00
2023-02-11T12:19:49.751Z,96169.53
2023-02-11T12:22:46.562Z,96183.91
2023-02-11T12:25:40.916Z,96168.34
2023-02-11T12:28:32.948Z,96171.50
2023-02-11T12:31:29.477Z,96158.22
2023-02-11T12:34:30.689Z,96143.34
2023-02-11T12:37:24.999Z,96142.84
2023-02-11T12:40:17.119Z,96139.56
2023-02-11T12:43:18.328Z,96126.53
2023-02-11T12:46:30.021Z,96142.56
2023-02-11T12:49:38.234Z,96138.06
2023-02-11T12:52:34.633Z,96141.28
2023-02-11T12:55:23.754Z,96133.25
2023-02-11T12:58:14.245Z,96119.38
2023-02-11T13:01:04.468Z,96115.22
2023-02-11T13:03:52.656Z,96119.25
2023-02-11T13:06:41.631Z,96109.09
2023-02-11T13:09:31.616Z,96109.09
2023-02-11T13:12:33.293Z,96111.22
2023-02-11T13:15:17.175Z,96110.75
2023-02-11T13:18:05.937Z,96112.38
2023-02-11T13:20:54.734Z,96110.09
2023-02-11T13:23:45.198Z,96103.19
2023-02-11T13:26:33.853Z,96108.88
2023-02-11T13:29:27.629Z,96093.38
2023-02-11T13:32:12.734Z,96092.97
2023-02-11T13:35:03.407Z,96091.72
2023-02-11T13:37:49.220Z,96106.13
2023-02-11T13:40:36.385Z,96095.97
2023-02-11T13:43:24.651Z,96095.31
2023-02-11T13:46:10.992Z,96099.22
2023-02-11T13:48:55.174Z,96088.56
2023-02-11T13:51:42.394Z,96088.88
2023-02-11T13:54:31.340Z,96081.31
2023-02-11T13:57:40.866Z,96088.56
2023-02-11T14:00:51.915Z,96074.88
2023-02-11T14:03:54.789Z,96074.06
2023-02-11T14:07:00.732Z,96063.78
2023-02-11T14:09:43.908Z,96070.53
2023-02-11T14:12:36.514Z,96062.63
2023-02-11T14:15:29.270Z,96068.75
2023-02-11T14:18:40.385Z,96065.38
2023-02-11T14:21:32.918Z,96062.63
2023-02-11T14:24:52.157Z,96056.50
2023-02-11T14:27:46.042Z,96059.69
2023-02-11T14:30:46.274Z,96054.25
2023-02-11T14:33:50.783Z,96052.47
2023-02-11T14:37:02.300Z,96046.94
2023-02-11T14:39:57.603Z,96056.53
2023-02-11T14:42:40.874Z,96057.34
2023-02-11T14:45:28.250Z,96049.13
2023-02-11T14:48:17.933Z,96061.03
2023-02-11T14:51:06.560Z,96054.91
2023-02-11T14:53:53.070Z,96057.13
2023-02-11T14:56:37.107Z,96049.38
2023-02-11T14:59:23.685Z,96059.44
2023-02-11T15:02:22.859Z,96052.78
2023-02-11T15:05:19.877Z,96056.13
2023-02-11T15:08:08.431Z,96051.13
2023-02-11T15:10:56.808Z,96038.41
2023-02-11T15:13:47.577Z,96044.31
2023-02-11T15:16:31.169Z,96045.09
2023-02-11T15:19:27.336Z,96040.66
2023-02-11T15:22:20.788Z,96041.22
2023-02-11T15:25:10.813Z,96034.78
2023-02-11T15:27:56.683Z,96027.03
2023-02-11T15:30:40.021Z,96030.56
2023-02-11T15:33:25.480Z,96024.34
2023-02-11T15:36:12.278Z,96016.22
2023-02-11T15:39:21.452Z,96018.25
2023-02-11T15:42:26.907Z,96019.28
2023-02-11T15:45:13.666Z,96019.75
2023-02-11T15:48:00.981Z,96022.88
2023-02-11T15:50:50.270Z,96023.06
2023-02-11T15:53:40.620Z,96031.78
2023-02-11T15:56:30.788Z,96033.31
2023-02-11T15:59:19.610Z,96027.34
2023-02-11T16:02:09.616Z,96022.53
2023-02-11T16:04:55.724Z,96025.56
2023-02-11T16:07:41.732Z,96035.47
2023-02-11T16:10:28.073Z,96035.72
2023-02-11T16:13:21.219Z,96025.06
2023-02-11T16:16:07.196Z,96020.97
2023-02-11T16:19:04.375Z,96029.19
2023-02-11T16:21:50.336Z,96031.25
2023-02-11T16:24:35.781Z,96031.72
2023-02-11T16:27:23.999Z,96021.91
2023-02-11T16:30:25.412Z,96033.66
2023-02-11T16:33:10.705Z,96039.34
2023-02-11T16:35:53.864Z,96042.19
2023-02-11T16:38:37.349Z,96032.22
2023-02-11T16:41:20.381Z,96034.78
2023-02-11T16:44:03.968Z,96038.16
2023-02-11T16:46:49.177Z,96029.84
2023-02-11T16:49:36.073Z,96037.91
2023-02-11T16:52:20.162Z,96033.59
2023-02-11T16:55:05.255Z,96038.59
2023-02-11T16:57:48.451Z,96037.91
2023-02-11T17:00:31.827Z,96034.56
2023-02-11T17:03:23.650Z,96047.34
2023-02-11T17:06:08.027Z,96029.84
2023-02-11T17:08:51.248Z,96040.47
2023-02-11T17:11:34.704Z,96038.19
2023-02-11T17:14:18.364Z,96034.16
2023-02-11T17:17:01.770Z,96030.53
2023-02-11T17:19:47.962Z,96027.41
2023-02-11T17:22:31.041Z,96018.81
2023-02-11T17:25:14.328Z,96020.28
2023-02-11T17:27:57.416Z,96027.16
2023-02-11T17:30:43.863Z,96028.66
2023-02-11T17:33:27.418Z,96028.22
2023-02-11T17:36:12.521Z,96028.78
2023-02-11T17:38:56.370Z,96032.53
2023-02-11T17:41:40.127Z,96030.50
2023-02-11T17:44:23.343Z,96039.56
2023-02-11T17:47:07.348Z,96041.69
2023-02-11T17:49:50.689Z,96032.94
2023-02-11T17:52:36.724Z,96043.84
2023-02-11T17:55:22.265Z,96041.41
2023-02-11T17:58:07.674Z,96037.94
2023-02-11T18:00:51.073Z,96040.06
2023-02-11T18:03:34.492Z,96040.06
2023-02-11T18:06:17.571Z,96042.78
2023-02-11T18:09:04.388Z,96059.47
2023-02-11T18:11:48.587Z,96062.13
2023-02-11T18:14:31.784Z,96057.44
2023-02-11T18:17:14.905Z,96048.16
2023-02-11T18:19:58.523Z,96041.97
2023-02-11T18:22:44.344Z,96045.44
2023-02-11T18:25:30.094Z,96039.94
2023-02-11T18:28:13.365Z,96046.91
2023-02-11T18:30:58.696Z,96050.66
2023-02-11T18:33:42.949Z,96046.78
2023-02-11T18:36:26.185Z,96037.88
2023-02-11T18:39:10.112Z,96044.63
2023-02-11T18:41:56.919Z,96026.03
2023-02-11T18:44:40.441Z,96027.66
2023-02-11T18:47:23.498Z,96032.25
2023-02-11T18:50:08.501Z,96026.84
2023-02-11T18:52:51.973Z,96029.56
2023-02-11T18:55:35.190Z,96023.22
2023-02-11T18:58:21.242Z,96015.03
2023-02-11T19:01:12.176Z,96020.41
2023-02-11T19:03:56.287Z,96024.97
2023-02-11T19:06:40.001Z,96025.31
2023-02-11T19:09:24.266Z,96024.44
2023-02-11T19:12:08.749Z,96027.22
2023-02-11T19:14:53.644Z,96028.47
2023-02-11T19:17:36.909Z,96027.41
2023-02-11T19:20:22.801Z,96023.25
2023-02-11T19:23:05.909Z,96020.63
2023-02-11T19:25:49.715Z,96017.94
2023-02-11T19:28:33.079Z,96025.16
2023-02-11T19:31:17.855Z,96024.41
2023-02-11T19:34:01.366Z,96027.66
2023-02-11T19:36:44.922Z,96014.22
2023-02-11T19:39:28.671Z,96004.28
2023-02-11T19:42:12.286Z,96008.69
2023-02-11T19:44:55.557Z,96000.78
2023-02-11T19:47:40.193Z,95989.97
2023-02-11T19:50:23.595Z,95996.69
2023-02-11T19:53:06.868Z,95994.75
2023-02-11T19:55:51.079Z,96005.31
2023-02-11T19:58:34.635Z,95987.22
2023-02-11T20:01:22.069Z,95994.69
2023-02-11T20:04:07.223Z,96000.28
2023-02-11T20:06:50.646Z,95993.63
2023-02-11T20:09:34.117Z,95989.84
2023-02-11T20:12:17.291Z,95989.88
2023-02-11T20:15:00.347Z,95996.72
2023-02-11T20:17:43.807Z,95991.59
2023-02-11T20:20:28.933Z,95982.22
2023-02-11T20:23:12.025Z,95970.22
2023-02-11T20:25:55.387Z,95973.09
2023-02-11T20:28:39.209Z,95973.91
2023-02-11T20:31:23.901Z,95976.75
2023-02-11T20:34:07.387Z,95960.25
2023-02-11T20:36:52.963Z,95962.56
2023-02-11T20:39:37.570Z,95953.94
2023-02-11T20:42:21.849Z,95956.75
2023-02-11T20:45:05.153Z,95953.38
2023-02-11T20:47:48.358Z,95944.88
2023-02-11T20:50:31.471Z,95937.06
2023-02-11T20:53:16.057Z,95939.28
2023-02-11T20:56:02.782Z,95943.25
2023-02-11T20:58:45.991Z,95946.66
2023-02-11T21:01:31.351Z,95940.91
2023-02-11T21:04:16.595Z,95931.78
2023-02-11T21:07:01.753Z,95924.44
2023-02-11T21:09:47.510Z,95926.31
2023-02-11T21:12:30.654Z,95926.88
2023-02-11T21:15:13.792Z,95917.94
2023-02-11T21:17:57.189Z,95915.69
2023-02-11T21:20:40.412Z,95917.28
2023-02-11T21:23:23.632Z,95914.38
2023-02-11T21:26:08.897Z,95906.50
2023-02-11T21:28:53.250Z,95893.47
2023-02-11T21:31:37.662Z,95900.81
2023-02-11T21:34:22.395Z,95910.13
2023-02-11T21:37:05.518Z,95910.81
2023-02-11T21:39:48.535Z,95907.19
2023-02-11T21:42:33.190Z,95909.06
2023-02-11T21:45:16.718Z,95900.81
2023-02-11T21:48:00.153Z,95907.50
2023-02-11T21:50:44.399Z,95898.63
2023-02-11T21:53:27.773Z,95909.75
2023-02-11T21:56:13.768Z,95889.09
2023-02-11T21:59:00.284Z,95901.44
2023-02-11T22:01:43.670Z,95897.00
2023-02-11T22:04:27.051Z,95911.13
2023-02-11T22:07:10.242Z,95894.09
2023-02-11T22:09:54.868Z,95907.63
2023-02-11T22:12:38.079Z,95894.56
2023-02-11T22:15:22.760Z,95903.78
2023-02-11T22:18:06.238Z,95904.53
2023-02-11T22:20:59.132Z,95908.50
2023-02-11T22:23:42.443Z,95904.22
2023-02-11T22:26:27.110Z,95895.72
2023-02-11T22:29:10.931Z,95911.22
2023-02-11T22:31:55.596Z,95904.91
2023-02-11T22:34:38.863Z,95895.81
2023-02-11T22:37:22.138Z,95896.09
2023-02-11T22:40:06.001Z,95908.31
2023-02-11T22:42:49.117Z,95896.00
2023-02-11T22:45:35.051Z,95901.47
2023-02-11T22:48:23.014Z,95905.59
2023-02-11T22:51:08.079Z,95899.56
2023-02-11T22:53:53.324Z,95893.81
2023-02-11T22:56:37.108Z,95900.00
2023-02-11T22:59:20.370Z,95900.06
2023-02-11T23:02:04.222Z,95899.81
2023-02-11T23:04:49.991Z,95894.00
2023-02-11T23:07:33.421Z,95900.53
2023-02-11T23:10:16.595Z,95897.81
2023-02-11T23:12:59.834Z,95896.94
2023-02-11T23:15:45.248Z,95902.66
2023-02-11T23:18:28.459Z,95893.81
2023-02-11T23:21:17.062Z,95889.91
2023-02-11T23:24:02.336Z,95877.16
2023-02-11T23:26:45.643Z,95865.53
2023-02-11T23:29:29.126Z,95861.53
2023-02-11T23:32:12.944Z,95862.22
2023-02-11T23:34:56.134Z,95860.78
2023-02-11T23:37:40.791Z,95863.75
2023-02-11T23:40:24.191Z,95861.25
2023-02-11T23:43:07.291Z,95863.38
2023-02-11T23:45:52.314Z,95872.66
2023-02-11T23:48:37.908Z,95863.97
2023-02-11T23:51:21.658Z,95875.56
2023-02-11T23:54:06.217Z,95868.09
2023-02-11T23:56:49.260Z,95866.22
2023-02-11T23:59:32.505Z,95860.84
